Latest Weather Observations for Spring Bay

IDT60801

Issued at 11:35 pm EDT Monday 20 October 2014 (issued every 30 minutes, with the page automatically refreshed every 10 minutes)

About weather observations | Map of weather stations | Latest weather observations for TAS | Other Formats
Station Details ID: 092133 Name: SPRING BAY NTC AWS Lat: -42.55 Lon: 147.93 Height: 0.0 m
Data from the previous 72 hours. | See also: Recent months for locations in Tasmania
Date/Time
EDT
Temp
°C
App
Temp
°C
Dew
Point
Rel
Hum
%
Delta-T
°C
Wind Press
QNH
hPa
Press
MSL
hPa
Rain
since 9 am
mm
Dir
 
Spd
km/h
Gust
km/h
Spd
kts
Gust
kts
20/11:30pm 10.4 - - - - N 7 9 4 5 1035.3 1035.3 -
20/11:00pm 10.6 - - - - NNW 7 9 4 5 1035.5 1035.5 -
20/10:30pm 10.7 - - - - NE 2 6 1 3 1035.7 1035.7 -
20/10:00pm 10.6 - - - - ENE 6 7 3 4 1035.7 1035.7 -
20/09:30pm 10.6 - - - - E 7 15 4 8 1035.5 1035.5 -
20/09:00pm 10.9 - - - - E 15 19 8 10 1035.4 1035.4 -
20/08:30pm 10.9 - - - - ESE 13 20 7 11 1035.1 1035.1 -
20/08:00pm 10.9 - - - - ESE 13 20 7 11 1034.6 1034.6 -
20/07:30pm 11.2 - - - - SE 19 20 10 11 1034.4 1034.4 -
20/07:00pm 11.7 - - - - E 9 17 5 9 1034.1 1034.1 -
20/06:30pm 11.6 - - - - ENE 7 15 4 8 1033.9 1033.9 -
20/06:00pm 11.8 - - - - ENE 15 22 8 12 1033.7 1033.7 -
20/05:30pm 12.0 - - - - ENE 15 22 8 12 1033.7 1033.7 -
20/05:00pm 11.6 - - - - NE 19 24 10 13 1033.6 1033.6 -
20/04:30pm 12.1 - - - - NE 19 26 10 14 1033.5 1033.5 -
20/04:00pm 11.9 - - - - NE 15 22 8 12 1033.5 1033.5 -
20/03:30pm 13.2 - - - - ESE 19 30 10 16 1033.4 1033.4 -
20/03:00pm 12.7 - - - - ESE 22 30 12 16 1033.3 1033.3 -
20/02:30pm 12.7 - - - - ESE 19 28 10 15 1033.5 1033.5 -
20/02:00pm 12.7 - - - - ESE 17 26 9 14 1033.7 1033.7 -
20/01:30pm 12.2 - - - - ESE 20 28 11 15 1033.7 1033.7 -
20/01:00pm 12.3 - - - - ESE 19 24 10 13 1033.7 1033.7 -
20/12:30pm 11.5 - - - - SE 6 7 3 4 1033.8 1033.8 -
20/12:00pm 11.6 - - - - ESE 9 13 5 7 1033.9 1033.9 -
20/11:30am 10.9 - - - - S 9 20 5 11 1033.9 1033.9 -
20/11:00am 10.9 - - - - SW 13 22 7 12 1034.0 1034.0 -
20/10:30am 10.5 - - - - S 26 32 14 17 1033.9 1033.9 -
20/10:00am 10.7 - - - - S 20 24 11 13 1033.8 1033.8 -
20/09:30am 9.9 - - - - WSW 19 24 10 13 1033.5 1033.5 -
20/09:00am 9.1 - - - - WSW 19 22 10 12 1033.2 1033.2 -
20/08:30am 7.9 - - - - WSW 17 20 9 11 1033.0 1033.0 -
20/08:00am 7.6 - - - - SW 13 20 7 11 1032.8 1032.8 -
20/07:30am 8.0 - - - - SW 22 28 12 15 1031.9 1031.9 -
20/07:00am 7.6 - - - - SW 26 32 14 17 1031.8 1031.8 -
20/06:30am 7.2 - - - - SW 22 30 12 16 1031.6 1031.6 -
20/06:00am 7.5 - - - - SW 22 28 12 15 1030.9 1030.9 -
20/05:30am 7.7 - - - - WSW 20 28 11 15 1030.4 1030.4 -
20/05:00am 7.4 - - - - SW 22 28 12 15 1030.1 1030.1 -
20/04:30am 7.7 - - - - SW 20 28 11 15 1029.7 1029.7 -
20/04:00am 8.0 - - - - SW 19 24 10 13 1029.4 1029.4 -
20/03:30am 7.5 - - - - SW 19 24 10 13 1028.9 1028.9 -
20/03:00am 7.9 - - - - SW 24 33 13 18 1028.6 1028.6 -
20/02:30am 8.2 - - - - S 32 43 17 23 1028.4 1028.4 -
20/02:00am 8.2 - - - - SW 19 24 10 13 1027.7 1027.7 -
20/01:30am 8.2 - - - - SW 24 28 13 15 1027.5 1027.5 -
20/01:00am 8.3 - - - - SSW 28 33 15 18 1027.4 1027.4 -
20/12:30am 8.6 - - - - SSW 30 39 16 21 1026.9 1026.9 -
20/12:07am 8.1 - - - - SSW 37 57 20 31 1026.9 1026.9 -
20/12:00am 8.2 - - - - S 33 43 18 23 1026.7 1026.7 -
 
Date/Time
EDT
Temp
°C
App
Temp
°C
Dew
Point
Rel
Hum
%
Delta-T
°C
Wind Press
QNH
hPa
Press
MSL
hPa
Rain
since 9 am
mm
Dir
 
Spd
km/h
Gust
km/h
Spd
kts
Gust
kts
19/11:30pm 9.4 - - - - SSW 26 37 14 20 1025.9 1025.9 -
19/11:00pm 9.2 - - - - SW 19 26 10 14 1025.4 1025.4 -
19/10:30pm 9.2 - - - - WSW 17 24 9 13 1024.8 1024.8 -
19/10:00pm 9.6 - - - - SSW 28 37 15 20 1024.4 1024.4 -
19/09:30pm 9.6 - - - - S 48 72 26 39 1023.6 1023.6 -
19/09:04pm 10.0 - - - - S 30 56 16 30 1023.0 1023.0 -
19/09:00pm 9.7 - - - - S 26 44 14 24 1022.9 1022.9 -
19/08:30pm 9.9 - - - - S 22 32 12 17 1022.1 1022.1 -
19/08:00pm 10.3 - - - - S 28 37 15 20 1021.0 1021.0 -
19/07:30pm 11.1 - - - - SSE 26 33 14 18 1020.2 1020.2 -
19/07:00pm 11.3 - - - - S 17 20 9 11 1019.1 1019.1 -
19/06:30pm 11.4 - - - - S 20 26 11 14 1017.8 1017.8 -
19/06:00pm 11.0 - - - - SSW 13 17 7 9 1017.5 1017.5 -
19/05:30pm 11.2 - - - - SSW 24 35 13 19 1017.8 1017.8 -
19/05:00pm 12.1 - - - - S 32 39 17 21 1017.1 1017.1 -
19/04:30pm 13.1 - - - - S 43 48 23 26 1015.5 1015.5 -
19/04:25pm 13.7 - - - - S 41 46 22 25 1015.3 1015.3 -
19/04:00pm 15.2 - - - - SSW 41 46 22 25 1014.6 1014.6 -
19/03:30pm 15.5 - - - - SSW 44 54 24 29 1014.9 1014.9 -
19/03:00pm 16.0 - - - - SW 37 50 20 27 1015.3 1015.3 -
19/02:37pm 16.9 - - - - SW 30 44 16 24 1015.3 1015.3 -
19/02:30pm 15.9 - - - - SE 15 26 8 14 1014.9 1014.9 -
19/02:00pm 16.4 - - - - ESE 17 26 9 14 1014.5 1014.5 -
19/01:30pm 16.2 - - - - ESE 22 28 12 15 1014.5 1014.5 -
19/01:00pm 18.0 - - - - WSW 15 22 8 12 1014.2 1014.2 -
19/12:30pm 19.2 - - - - WSW 28 44 15 24 1013.9 1013.9 -
19/12:00pm 19.1 - - - - WSW 24 37 13 20 1014.1 1014.1 -
19/11:36am 19.4 - - - - W 28 41 15 22 1014.4 1014.4 -
19/11:30am 19.2 - - - - SSE 7 15 4 8 1014.3 1014.3 -
19/11:00am 19.0 - - - - S 2 7 1 4 1014.6 1014.6 -
19/10:30am 18.4 - - - - NNW 2 6 1 3 1014.7 1014.7 -
19/10:00am 17.6 - - - - NNW 17 20 9 11 1014.9 1014.9 -
19/09:30am 16.7 - - - - NNW 20 26 11 14 1014.6 1014.6 -
19/09:00am 16.2 - - - - NNW 20 28 11 15 1015.0 1015.0 -
19/08:30am 15.4 - - - - NNW 26 32 14 17 1014.5 1014.5 -
19/08:00am 14.9 - - - - NNW 24 32 13 17 1014.5 1014.5 -
19/07:30am 14.8 - - - - NNW 26 37 14 20 1014.4 1014.4 -
19/07:00am 14.7 - - - - NNW 26 37 14 20 1013.6 1013.6 -
19/06:30am 15.1 - - - - NNW 39 48 21 26 1013.0 1013.0 -
19/06:00am 15.2 - - - - NNW 37 50 20 27 1013.0 1013.0 -
19/05:30am 15.5 - - - - NNW 37 48 20 26 1013.0 1013.0 -
19/05:00am 15.2 - - - - NNW 28 37 15 20 1013.4 1013.4 -
19/04:30am 14.4 - - - - NNW 30 43 16 23 1013.9 1013.9 -
19/04:00am 14.3 - - - - NNW 30 43 16 23 1014.4 1014.4 -
19/03:30am 14.4 - - - - NNW 32 43 17 23 1014.8 1014.8 -
19/03:00am 14.6 - - - - NW 44 56 24 30 1015.1 1015.1 -
19/02:30am 15.0 - - - - NW 52 61 28 33 1014.9 1014.9 -
19/02:00am 15.2 - - - - NW 46 57 25 31 1014.9 1014.9 -
19/01:52am 15.4 - - - - NW 50 69 27 37 1014.8 1014.8 -
19/01:35am 16.1 - - - - NW 63 74 34 40 1015.5 1015.5 -
19/01:30am 15.9 - - - - WNW 43 67 23 36 1015.6 1015.6 -
19/01:10am 16.4 - - - - WNW 33 56 18 30 1015.8 1015.8 -
19/01:00am 16.5 - - - - NW 37 50 20 27 1015.8 1015.8 -
19/12:55am 16.6 - - - - NW 30 48 16 26 1015.8 1015.8 -
19/12:54am 16.8 - - - - NW 28 46 15 25 1015.8 1015.8 -
19/12:30am 16.1 - - - - N 15 26 8 14 1016.0 1016.0 -
19/12:00am 16.1 - - - - NNW 30 41 16 22 1016.5 1016.5 -
 
Date/Time
EDT
Temp
°C
App
Temp
°C
Dew
Point
Rel
Hum
%
Delta-T
°C
Wind Press
QNH
hPa
Press
MSL
hPa
Rain
since 9 am
mm
Dir
 
Spd
km/h
Gust
km/h
Spd
kts
Gust
kts
18/11:30pm 15.9 - - - - N 17 28 9 15 1016.9 1016.9 -
18/11:00pm 15.6 - - - - N 22 33 12 18 1016.8 1016.8 -
18/10:30pm 15.5 - - - - NNW 28 43 15 23 1017.4 1017.4 -
18/10:16pm 15.6 - - - - NW 33 52 18 28 1017.6 1017.6 -
18/10:00pm 15.4 - - - - NW 44 54 24 29 1018.1 1018.1 -
18/09:30pm 15.2 - - - - NNW 41 56 22 30 1018.4 1018.4 -
18/09:00pm 15.4 - - - - NW 39 54 21 29 1018.1 1018.1 -
18/08:30pm 15.7 - - - - NW 28 37 15 20 1018.4 1018.4 -
18/08:00pm 16.2 - - - - NNW 22 30 12 16 1018.8 1018.8 -
18/07:30pm 16.3 - - - - NNW 20 28 11 15 1018.9 1018.9 -
18/07:00pm 16.6 - - - - NNW 28 37 15 20 1019.2 1019.2 -
18/06:30pm 16.4 - - - - NW 30 41 16 22 1019.4 1019.4 -
18/06:00pm 16.4 - - - - NW 33 41 18 22 1019.5 1019.5 -
18/05:30pm 16.1 - - - - NW 46 54 25 29 1019.2 1019.2 -
18/05:00pm 16.9 - - - - NW 32 37 17 20 1019.4 1019.4 -
18/04:30pm 17.4 - - - - NW 33 41 18 22 1019.4 1019.4 -
18/04:00pm 17.3 - - - - NW 41 48 22 26 1019.4 1019.4 -
18/03:30pm 17.0 - - - - NW 33 46 18 25 1019.8 1019.8 -
18/03:00pm 16.9 - - - - NW 33 44 18 24 1020.1 1020.1 -
18/02:30pm 17.2 - - - - NW 35 43 19 23 1020.4 1020.4 -
18/02:00pm 17.7 - - - - NW 32 43 17 23 1020.3 1020.3 -
18/01:30pm 17.6 - - - - NW 39 50 21 27 1020.5 1020.5 -
18/01:00pm 16.7 - - - - NW 37 52 20 28 1020.9 1020.9 -
18/12:30pm 16.6 - - - - NW 35 48 19 26 1022.1 1022.1 -
18/12:16pm 16.5 - - - - NW 28 50 15 27 1022.5 1022.5 -
18/12:00pm 16.3 - - - - NW 39 48 21 26 1022.7 1022.7 -
18/11:30am 16.2 - - - - NNW 32 44 17 24 1022.8 1022.8 -
18/11:00am 15.8 - - - - NW 32 37 17 20 1023.3 1023.3 -

Other Formats:

Comma delimited format used in spreadsheet applications
http://www.bom.gov.au/fwo/IDT60801/IDT60801.95987.axf

JavaScript Object Notation format (JSON) in row-major order
http://www.bom.gov.au/fwo/IDT60801/IDT60801.95987.json